sensor_id;sensor_type;location;lat;lon;timestamp;pressure;altitude;pressure_sealevel;temperature;humidity
64078;BME280;51039;49.696;10.808;2023-01-26T00:01:22;98962.47;;;-0.60;89.97
64078;BME280;51039;49.696;10.808;2023-01-26T00:03:51;98950.88;;;-0.56;90.29
64078;BME280;51039;49.696;10.808;2023-01-26T00:06:17;98952.31;;;-0.63;90.16
64078;BME280;51039;49.696;10.808;2023-01-26T00:08:45;98951.94;;;-0.70;90.54
64078;BME280;51039;49.696;10.808;2023-01-26T00:11:16;98944.41;;;-0.62;90.41
64078;BME280;51039;49.696;10.808;2023-01-26T00:13:43;98938.94;;;-0.58;90.28
64078;BME280;51039;49.696;10.808;2023-01-26T00:16:10;98936.22;;;-0.57;89.77
64078;BME280;51039;49.696;10.808;2023-01-26T00:18:37;98936.22;;;-0.57;89.77
64078;BME280;51039;49.696;10.808;2023-01-26T00:21:03;98931.38;;;-0.62;90.04
64078;BME280;51039;49.696;10.808;2023-01-26T00:23:30;98938.44;;;-0.64;89.83
64078;BME280;51039;49.696;10.808;2023-01-26T00:25:57;98940.22;;;-0.64;89.84
64078;BME280;51039;49.696;10.808;2023-01-26T00:28:22;98935.25;;;-0.56;89.78
64078;BME280;51039;49.696;10.808;2023-01-26T00:30:48;98929.84;;;-0.53;89.31
64078;BME280;51039;49.696;10.808;2023-01-26T00:33:13;98917.78;;;-0.54;89.10
64078;BME280;51039;49.696;10.808;2023-01-26T00:35:38;98922.84;;;-0.75;89.64
64078;BME280;51039;49.696;10.808;2023-01-26T00:38:08;98917.28;;;-0.82;90.35
64078;BME280;51039;49.696;10.808;2023-01-26T00:40:36;98917.06;;;-0.78;90.13
64078;BME280;51039;49.696;10.808;2023-01-26T00:43:02;98905.94;;;-0.92;90.51
64078;BME280;51039;49.696;10.808;2023-01-26T00:45:27;98904.94;;;-1.02;91.13
64078;BME280;51039;49.696;10.808;2023-01-26T00:47:53;98907.72;;;-0.92;90.70
64078;BME280;51039;49.696;10.808;2023-01-26T00:50:18;98905.34;;;-0.84;90.76
64078;BME280;51039;49.696;10.808;2023-01-26T00:52:43;98896.69;;;-0.73;90.77
64078;BME280;51039;49.696;10.808;2023-01-26T00:55:08;98892.22;;;-0.71;90.78
64078;BME280;51039;49.696;10.808;2023-01-26T00:57:34;98903.00;;;-0.65;90.45
64078;BME280;51039;49.696;10.808;2023-01-26T00:59:59;98890.69;;;-0.63;90.13
64078;BME280;51039;49.696;10.808;2023-01-26T01:02:24;98889.63;;;-0.60;90.47
64078;BME280;51039;49.696;10.808;2023-01-26T01:04:50;98886.09;;;-0.59;90.52
64078;BME280;51039;49.696;10.808;2023-01-26T01:07:15;98884.53;;;-0.73;91.05
64078;BME280;51039;49.696;10.808;2023-01-26T01:09:40;98885.00;;;-0.79;91.44
64078;BME280;51039;49.696;10.808;2023-01-26T01:12:06;98881.69;;;-0.92;91.05
64078;BME280;51039;49.696;10.808;2023-01-26T01:14:31;98876.03;;;-0.86;91.98
64078;BME280;51039;49.696;10.808;2023-01-26T01:16:56;98866.69;;;-0.77;91.55
64078;BME280;51039;49.696;10.808;2023-01-26T01:19:22;98866.94;;;-0.81;91.51
64078;BME280;51039;49.696;10.808;2023-01-26T01:21:47;98864.34;;;-0.69;91.94
64078;BME280;51039;49.696;10.808;2023-01-26T01:24:12;98869.97;;;-0.75;91.77
64078;BME280;51039;49.696;10.808;2023-01-26T01:26:38;98857.81;;;-0.75;91.76
64078;BME280;51039;49.696;10.808;2023-01-26T01:29:04;98867.25;;;-0.85;91.25
64078;BME280;51039;49.696;10.808;2023-01-26T01:31:29;98865.03;;;-0.78;91.77
64078;BME280;51039;49.696;10.808;2023-01-26T01:33:55;98864.66;;;-0.74;91.48
64078;BME280;51039;49.696;10.808;2023-01-26T01:36:21;98853.34;;;-0.73;91.00
64078;BME280;51039;49.696;10.808;2023-01-26T01:38:47;98852.03;;;-0.78;91.20
64078;BME280;51039;49.696;10.808;2023-01-26T01:41:15;98854.63;;;-0.78;91.33
64078;BME280;51039;49.696;10.808;2023-01-26T01:43:42;98861.25;;;-0.86;91.02
64078;BME280;51039;49.696;10.808;2023-01-26T01:51:38;98857.34;;;-0.91;91.62
64078;BME280;51039;49.696;10.808;2023-01-26T01:54:08;98856.63;;;-0.82;91.50
64078;BME280;51039;49.696;10.808;2023-01-26T01:56:38;98866.94;;;-0.81;91.44
64078;BME280;51039;49.696;10.808;2023-01-26T01:59:09;98861.34;;;-0.87;91.29
64078;BME280;51039;49.696;10.808;2023-01-26T02:01:36;98856.75;;;-0.84;90.62
64078;BME280;51039;49.696;10.808;2023-01-26T02:04:02;98846.00;;;-0.90;90.35
64078;BME280;51039;49.696;10.808;2023-01-26T02:06:35;98846.56;;;-0.87;90.63
64078;BME280;51039;49.696;10.808;2023-01-26T02:09:06;98842.44;;;-0.78;90.59
64078;BME280;51039;49.696;10.808;2023-01-26T02:11:54;98844.44;;;-0.93;90.75
64078;BME280;51039;49.696;10.808;2023-01-26T02:14:20;98840.22;;;-0.94;90.66
64078;BME280;51039;49.696;10.808;2023-01-26T02:16:46;98830.03;;;-0.97;90.57
64078;BME280;51039;49.696;10.808;2023-01-26T02:19:13;98833.34;;;-0.95;90.51
64078;BME280;51039;49.696;10.808;2023-01-26T02:21:46;98831.22;;;-0.90;90.07
64078;BME280;51039;49.696;10.808;2023-01-26T02:24:20;98831.81;;;-0.86;90.00
64078;BME280;51039;49.696;10.808;2023-01-26T02:26:49;98821.03;;;-1.04;89.98
64078;BME280;51039;49.696;10.808;2023-01-26T02:29:14;98821.28;;;-1.19;91.35
64078;BME280;51039;49.696;10.808;2023-01-26T02:31:40;98819.63;;;-1.08;90.88
64078;BME280;51039;49.696;10.808;2023-01-26T02:34:05;98814.91;;;-1.03;91.12
64078;BME280;51039;49.696;10.808;2023-01-26T02:36:31;98820.09;;;-1.14;91.41
64078;BME280;51039;49.696;10.808;2023-01-26T02:41:42;98812.41;;;-1.16;90.74
64078;BME280;51039;49.696;10.808;2023-01-26T02:44:26;98810.06;;;-1.19;90.72
64078;BME280;51039;49.696;10.808;2023-01-26T02:46:53;98813.59;;;-1.20;90.78
64078;BME280;51039;49.696;10.808;2023-01-26T02:49:18;98809.22;;;-1.20;90.95
64078;BME280;51039;49.696;10.808;2023-01-26T02:52:05;98800.47;;;-1.19;90.67
64078;BME280;51039;49.696;10.808;2023-01-26T02:54:31;98802.84;;;-1.15;90.88
64078;BME280;51039;49.696;10.808;2023-01-26T02:57:15;98801.41;;;-1.08;90.94
64078;BME280;51039;49.696;10.808;2023-01-26T02:59:40;98796.47;;;-1.00;90.61
64078;BME280;51039;49.696;10.808;2023-01-26T03:02:06;98794.00;;;-0.90;90.19
64078;BME280;51039;49.696;10.808;2023-01-26T03:04:32;98799.19;;;-0.90;90.36
64078;BME280;51039;49.696;10.808;2023-01-26T03:06:57;98798.13;;;-0.99;89.93
64078;BME280;51039;49.696;10.808;2023-01-26T03:09:22;98796.59;;;-0.90;90.00
64078;BME280;51039;49.696;10.808;2023-01-26T03:11:48;98796.22;;;-0.86;89.89
64078;BME280;51039;49.696;10.808;2023-01-26T03:14:13;98799.53;;;-0.84;89.63
64078;BME280;51039;49.696;10.808;2023-01-26T03:16:39;98790.78;;;-0.83;89.95
64078;BME280;51039;49.696;10.808;2023-01-26T03:19:06;98782.03;;;-0.82;89.54
64078;BME280;51039;49.696;10.808;2023-01-26T03:21:33;98785.34;;;-0.80;89.47
64078;BME280;51039;49.696;10.808;2023-01-26T03:24:16;98786.03;;;-0.89;89.79
64078;BME280;51039;49.696;10.808;2023-01-26T03:27:00;98784.88;;;-0.85;89.73
64078;BME280;51039;49.696;10.808;2023-01-26T03:29:44;98783.69;;;-0.81;89.81
64078;BME280;51039;49.696;10.808;2023-01-26T03:32:10;98779.91;;;-0.88;89.27
64078;BME280;51039;49.696;10.808;2023-01-26T03:34:36;98783.22;;;-0.86;89.44
64078;BME280;51039;49.696;10.808;2023-01-26T03:37:01;98778.84;;;-0.96;88.83
64078;BME280;51039;49.696;10.808;2023-01-26T03:39:27;98781.56;;;-0.87;89.92
64078;BME280;51039;49.696;10.808;2023-01-26T03:42:11;98784.75;;;-0.83;89.19
64078;BME280;51039;49.696;10.808;2023-01-26T03:44:55;98770.91;;;-0.84;89.62
64078;BME280;51039;49.696;10.808;2023-01-26T03:47:39;98776.13;;;-0.95;89.44
64078;BME280;51039;49.696;10.808;2023-01-26T03:50:23;98773.09;;;-1.00;89.71
64078;BME280;51039;49.696;10.808;2023-01-26T03:56:01;98771.88;;;-0.85;89.19
64078;BME280;51039;49.696;10.808;2023-01-26T03:58:42;98771.28;;;-0.88;89.37
64078;BME280;51039;49.696;10.808;2023-01-26T04:01:08;98771.28;;;-0.77;89.30
64078;BME280;51039;49.696;10.808;2023-01-26T04:03:35;98774.00;;;-0.90;89.36
64078;BME280;51039;49.696;10.808;2023-01-26T04:06:19;98775.41;;;-0.86;89.59
64078;BME280;51039;49.696;10.808;2023-01-26T04:09:03;98773.09;;;-1.00;89.73
64078;BME280;51039;49.696;10.808;2023-01-26T04:11:28;98774.25;;;-1.04;90.51
64078;BME280;51039;49.696;10.808;2023-01-26T04:13:53;98772.34;;;-1.02;90.43
64078;BME280;51039;49.696;10.808;2023-01-26T04:16:37;98768.81;;;-1.01;89.93
64078;BME280;51039;49.696;10.808;2023-01-26T04:19:21;98770.94;;;-1.06;89.87
64078;BME280;51039;49.696;10.808;2023-01-26T04:22:05;98767.41;;;-1.05;90.05
64078;BME280;51039;49.696;10.808;2023-01-26T04:24:30;98764.09;;;-1.07;89.83
64078;BME280;51039;49.696;10.808;2023-01-26T04:26:56;98762.69;;;-1.00;89.86
64078;BME280;51039;49.696;10.808;2023-01-26T04:29:21;98759.59;;;-0.94;89.77
64078;BME280;51039;49.696;10.808;2023-01-26T04:31:46;98758.41;;;-1.01;89.52
64078;BME280;51039;49.696;10.808;2023-01-26T04:34:12;98761.72;;;-0.99;90.14
64078;BME280;51039;49.696;10.808;2023-01-26T04:36:39;98764.91;;;-1.07;90.33
64078;BME280;51039;49.696;10.808;2023-01-26T04:39:05;98761.50;;;-1.07;89.99
64078;BME280;51039;49.696;10.808;2023-01-26T04:41:31;98762.78;;;-1.02;89.94
64078;BME280;51039;49.696;10.808;2023-01-26T04:43:57;98753.44;;;-0.93;89.92
64078;BME280;51039;49.696;10.808;2023-01-26T04:46:22;98758.75;;;-0.94;89.51
64078;BME280;51039;49.696;10.808;2023-01-26T04:48:48;98759.34;;;-0.91;89.37
64078;BME280;51039;49.696;10.808;2023-01-26T04:51:14;98752.00;;;-0.86;88.72
64078;BME280;51039;49.696;10.808;2023-01-26T04:53:42;98755.44;;;-0.85;88.86
64078;BME280;51039;49.696;10.808;2023-01-26T04:56:10;98764.53;;;-0.80;88.63
64078;BME280;51039;49.696;10.808;2023-01-26T04:58:43;98750.72;;;-0.80;88.73
64078;BME280;51039;49.696;10.808;2023-01-26T05:01:08;98755.31;;;-0.95;88.81
64078;BME280;51039;49.696;10.808;2023-01-26T05:03:33;98757.69;;;-0.92;89.52
64078;BME280;51039;49.696;10.808;2023-01-26T05:05:59;98754.38;;;-0.83;89.71
64078;BME280;51039;49.696;10.808;2023-01-26T05:08:24;98755.91;;;-0.91;89.58
64078;BME280;51039;49.696;10.808;2023-01-26T05:10:49;98755.31;;;-0.84;89.79
64078;BME280;51039;49.696;10.808;2023-01-26T05:13:16;98751.63;;;-0.81;89.80
64078;BME280;51039;49.696;10.808;2023-01-26T05:15:41;98751.78;;;-0.83;89.71
64078;BME280;51039;49.696;10.808;2023-01-26T05:18:08;98758.50;;;-0.80;89.81
64078;BME280;51039;49.696;10.808;2023-01-26T05:20:34;98753.41;;;-0.82;89.95
64078;BME280;51039;49.696;10.808;2023-01-26T05:22:59;98756.72;;;-0.80;89.93
64078;BME280;51039;49.696;10.808;2023-01-26T05:25:25;98757.69;;;-0.81;89.66
64078;BME280;51039;49.696;10.808;2023-01-26T05:27:50;98758.53;;;-0.91;89.54
64078;BME280;51039;49.696;10.808;2023-01-26T05:30:16;98751.19;;;-0.86;89.88
64078;BME280;51039;49.696;10.808;2023-01-26T05:32:42;98755.22;;;-0.82;89.80
64078;BME280;51039;49.696;10.808;2023-01-26T05:35:07;98760.31;;;-0.92;89.88
64078;BME280;51039;49.696;10.808;2023-01-26T05:37:33;98758.41;;;-0.90;90.37
64078;BME280;51039;49.696;10.808;2023-01-26T05:39:58;98752.72;;;-0.84;90.11
64078;BME280;51039;49.696;10.808;2023-01-26T05:42:24;98760.53;;;-0.84;90.02
64078;BME280;51039;49.696;10.808;2023-01-26T05:44:50;98761.94;;;-0.91;90.62
64078;BME280;51039;49.696;10.808;2023-01-26T05:47:16;98760.03;;;-0.89;90.34
64078;BME280;51039;49.696;10.808;2023-01-26T05:49:41;98755.31;;;-0.95;90.42
64078;BME280;51039;49.696;10.808;2023-01-26T05:52:10;98757.47;;;-1.00;90.73
64078;BME280;51039;49.696;10.808;2023-01-26T05:54:38;98757.81;;;-1.05;90.77
64078;BME280;51039;49.696;10.808;2023-01-26T05:57:03;98761.38;;;-1.06;91.38
64078;BME280;51039;49.696;10.808;2023-01-26T05:59:29;98760.41;;;-1.05;91.27
64078;BME280;51039;49.696;10.808;2023-01-26T06:01:55;98757.59;;;-0.90;91.47
64078;BME280;51039;49.696;10.808;2023-01-26T06:04:21;98761.22;;;-0.82;90.98
64078;BME280;51039;49.696;10.808;2023-01-26T06:06:46;98749.03;;;-0.81;90.74
64078;BME280;51039;49.696;10.808;2023-01-26T06:09:11;98766.91;;;-0.88;90.76
64078;BME280;51039;49.696;10.808;2023-01-26T06:11:37;98756.50;;;-0.88;90.54
64078;BME280;51039;49.696;10.808;2023-01-26T06:14:02;98759.59;;;-0.94;89.99
64078;BME280;51039;49.696;10.808;2023-01-26T06:16:27;98751.91;;;-0.84;90.62
64078;BME280;51039;49.696;10.808;2023-01-26T06:18:53;98765.72;;;-0.84;90.41
64078;BME280;51039;49.696;10.808;2023-01-26T06:21:18;98759.22;;;-0.89;90.36
64078;BME280;51039;49.696;10.808;2023-01-26T06:23:43;98759.34;;;-1.02;90.35
64078;BME280;51039;49.696;10.808;2023-01-26T06:26:09;98769.50;;;-0.88;90.47
64078;BME280;51039;49.696;10.808;2023-01-26T06:28:34;98766.53;;;-0.94;90.20
64078;BME280;51039;49.696;10.808;2023-01-26T06:31:03;98772.34;;;-0.91;90.64
64078;BME280;51039;49.696;10.808;2023-01-26T06:33:32;98772.34;;;-0.91;90.34
64078;BME280;51039;49.696;10.808;2023-01-26T06:36:00;98772.34;;;-0.91;90.98
64078;BME280;51039;49.696;10.808;2023-01-26T06:38:26;98763.84;;;-0.93;90.21
64078;BME280;51039;49.696;10.808;2023-01-26T06:40:52;98767.72;;;-0.87;90.42
64078;BME280;51039;49.696;10.808;2023-01-26T06:43:17;98755.69;;;-1.00;90.60
64078;BME280;51039;49.696;10.808;2023-01-26T06:45:42;98756.75;;;-0.91;90.49
64078;BME280;51039;49.696;10.808;2023-01-26T06:48:08;98759.34;;;-0.91;90.67
64078;BME280;51039;49.696;10.808;2023-01-26T06:50:33;98760.03;;;-0.89;90.76
64078;BME280;51039;49.696;10.808;2023-01-26T06:52:59;98763.00;;;-0.93;90.92
64078;BME280;51039;49.696;10.808;2023-01-26T06:55:31;98759.13;;;-0.88;90.74
64078;BME280;51039;49.696;10.808;2023-01-26T06:58:00;98763.81;;;-0.82;90.78
64078;BME280;51039;49.696;10.808;2023-01-26T07:00:25;98762.19;;;-0.83;90.53
64078;BME280;51039;49.696;10.808;2023-01-26T07:02:50;98759.81;;;-0.86;90.54
64078;BME280;51039;49.696;10.808;2023-01-26T07:05:16;98765.94;;;-0.87;90.70
64078;BME280;51039;49.696;10.808;2023-01-26T07:07:41;98761.47;;;-0.85;90.58
64078;BME280;51039;49.696;10.808;2023-01-26T07:10:07;98761.00;;;-0.78;90.27
64078;BME280;51039;49.696;10.808;2023-01-26T07:12:42;98761.94;;;-0.80;90.12
64078;BME280;51039;49.696;10.808;2023-01-26T07:15:09;98758.19;;;-0.98;89.90
64078;BME280;51039;49.696;10.808;2023-01-26T07:17:37;98760.53;;;-0.95;90.07
64078;BME280;51039;49.696;10.808;2023-01-26T07:20:03;98755.31;;;-0.95;89.90
64078;BME280;51039;49.696;10.808;2023-01-26T07:22:29;98756.50;;;-0.88;89.06
64078;BME280;51039;49.696;10.808;2023-01-26T07:24:54;98754.41;;;-0.94;88.79
64078;BME280;51039;49.696;10.808;2023-01-26T07:27:19;98756.75;;;-0.91;89.05
64078;BME280;51039;49.696;10.808;2023-01-26T07:29:45;98753.69;;;-0.96;89.41
64078;BME280;51039;49.696;10.808;2023-01-26T07:32:11;98752.25;;;-0.89;89.05
64078;BME280;51039;49.696;10.808;2023-01-26T07:34:36;98757.44;;;-0.89;88.39
64078;BME280;51039;49.696;10.808;2023-01-26T07:37:01;98754.88;;;-1.11;89.21
64078;BME280;51039;49.696;10.808;2023-01-26T07:39:27;98761.84;;;-1.01;88.64
64078;BME280;51039;49.696;10.808;2023-01-26T07:41:52;98757.22;;;-0.97;89.09
64078;BME280;51039;49.696;10.808;2023-01-26T07:44:17;98751.44;;;-0.89;89.25
64078;BME280;51039;49.696;10.808;2023-01-26T07:46:43;98753.91;;;-0.88;89.50
64078;BME280;51039;49.696;10.808;2023-01-26T07:49:08;98759.13;;;-0.88;89.11
64078;BME280;51039;49.696;10.808;2023-01-26T07:51:36;98757.94;;;-0.95;88.89
64078;BME280;51039;49.696;10.808;2023-01-26T07:54:03;98765.50;;;-0.92;88.48
64078;BME280;51039;49.696;10.808;2023-01-26T07:56:29;98760.66;;;-0.42;95.60
64078;BME280;51039;49.696;10.808;2023-01-26T07:58:54;98754.34;;;0.05;93.45
64078;BME280;51039;49.696;10.808;2023-01-26T08:01:19;98750.53;;;0.30;88.98
64078;BME280;51039;49.696;10.808;2023-01-26T08:03:48;98750.81;;;0.57;85.32
64078;BME280;51039;49.696;10.808;2023-01-26T08:06:14;98758.88;;;-0.09;85.52
64078;BME280;51039;49.696;10.808;2023-01-26T08:08:41;98748.72;;;0.30;86.13
64078;BME280;51039;49.696;10.808;2023-01-26T08:11:07;98762.81;;;-0.14;84.77
64078;BME280;51039;49.696;10.808;2023-01-26T08:13:33;98758.34;;;-0.24;86.60
64078;BME280;51039;49.696;10.808;2023-01-26T08:15:59;98748.78;;;0.19;85.49
64078;BME280;51039;49.696;10.808;2023-01-26T08:18:29;98744.63;;;0.28;85.33
64078;BME280;51039;49.696;10.808;2023-01-26T08:20:55;98752.50;;;0.16;85.67
64078;BME280;51039;49.696;10.808;2023-01-26T08:23:20;98754.00;;;-0.02;85.56
64078;BME280;51039;49.696;10.808;2023-01-26T08:25:46;98760.06;;;-0.02;85.81
64078;BME280;51039;49.696;10.808;2023-01-26T08:28:11;98742.38;;;0.23;85.29
64078;BME280;51039;49.696;10.808;2023-01-26T08:30:37;98748.38;;;0.14;84.22
64078;BME280;51039;49.696;10.808;2023-01-26T08:33:03;98752.66;;;0.04;84.77
64078;BME280;51039;49.696;10.808;2023-01-26T08:35:32;98750.78;;;0.27;85.29
64078;BME280;51039;49.696;10.808;2023-01-26T08:37:57;98756.66;;;-0.46;87.52
64078;BME280;51039;49.696;10.808;2023-01-26T08:40:23;98752.13;;;-0.32;87.45
64078;BME280;51039;49.696;10.808;2023-01-26T08:42:51;98758.03;;;-0.30;86.81
64078;BME280;51039;49.696;10.808;2023-01-26T08:45:17;98749.66;;;-0.34;89.16
64078;BME280;51039;49.696;10.808;2023-01-26T08:47:42;98746.25;;;-0.46;86.28
64078;BME280;51039;49.696;10.808;2023-01-26T08:50:08;98744.72;;;-0.16;88.10
64078;BME280;51039;49.696;10.808;2023-01-26T08:52:33;98745.94;;;0.01;86.58
64078;BME280;51039;49.696;10.808;2023-01-26T08:54:59;98738.72;;;0.05;85.92
64078;BME280;51039;49.696;10.808;2023-01-26T08:57:25;98740.34;;;0.06;85.69
64078;BME280;51039;49.696;10.808;2023-01-26T08:59:50;98741.47;;;-0.08;85.54
64078;BME280;51039;49.696;10.808;2023-01-26T09:02:16;98743.22;;;-0.30;85.32
64078;BME280;51039;49.696;10.808;2023-01-26T09:04:41;98744.50;;;-0.24;86.79
64078;BME280;51039;49.696;10.808;2023-01-26T09:07:06;98748.22;;;0.15;85.45
64078;BME280;51039;49.696;10.808;2023-01-26T09:09:31;98745.06;;;0.12;84.62
64078;BME280;51039;49.696;10.808;2023-01-26T09:11:57;98744.34;;;0.31;84.09
64078;BME280;51039;49.696;10.808;2023-01-26T09:14:22;98750.97;;;0.35;83.79
64078;BME280;51039;49.696;10.808;2023-01-26T09:16:48;98753.75;;;-0.31;85.33
64078;BME280;51039;49.696;10.808;2023-01-26T09:19:13;98752.25;;;-0.02;85.38
64078;BME280;51039;49.696;10.808;2023-01-26T09:21:39;98757.72;;;-0.16;85.35
64078;BME280;51039;49.696;10.808;2023-01-26T09:24:04;98764.81;;;-0.50;86.01
64078;BME280;51039;49.696;10.808;2023-01-26T09:26:30;98774.78;;;-0.55;86.70
64078;BME280;51039;49.696;10.808;2023-01-26T09:28:56;98775.31;;;-0.84;87.37
64078;BME280;51039;49.696;10.808;2023-01-26T09:31:21;98768.53;;;-0.64;87.54
64078;BME280;51039;49.696;10.808;2023-01-26T09:33:47;98766.25;;;-0.46;86.55
64078;BME280;51039;49.696;10.808;2023-01-26T09:36:14;98771.56;;;-0.48;86.87
64078;BME280;51039;49.696;10.808;2023-01-26T09:38:39;98769.66;;;-0.34;86.76
64078;BME280;51039;49.696;10.808;2023-01-26T09:41:06;98778.16;;;-0.32;86.21
64078;BME280;51039;49.696;10.808;2023-01-26T09:43:52;98779.09;;;-0.33;86.69
64078;BME280;51039;49.696;10.808;2023-01-26T09:56:46;98771.09;;;-0.53;86.60
64078;BME280;51039;49.696;10.808;2023-01-26T10:01:52;98774.31;;;-0.61;86.40
64078;BME280;51039;49.696;10.808;2023-01-26T10:04:29;98776.81;;;-0.59;86.30
64078;BME280;51039;49.696;10.808;2023-01-26T10:07:01;98763.28;;;-0.42;86.11
64078;BME280;51039;49.696;10.808;2023-01-26T10:09:30;98763.47;;;-0.33;86.24
64078;BME280;51039;49.696;10.808;2023-01-26T10:14:52;98762.88;;;-0.37;86.00
64078;BME280;51039;49.696;10.808;2023-01-26T10:17:29;98762.53;;;-0.32;85.94
64078;BME280;51039;49.696;10.808;2023-01-26T10:20:03;98765.16;;;-0.32;85.37
64078;BME280;51039;49.696;10.808;2023-01-26T10:22:47;98758.56;;;-0.48;86.83
64078;BME280;51039;49.696;10.808;2023-01-26T10:25:18;98762.53;;;-0.32;86.47
64078;BME280;51039;49.696;10.808;2023-01-26T10:27:53;98761.56;;;-0.31;85.98
64078;BME280;51039;49.696;10.808;2023-01-26T10:30:18;98760.59;;;-0.51;86.85
64078;BME280;51039;49.696;10.808;2023-01-26T10:32:45;98751.66;;;-0.37;86.54
64078;BME280;51039;49.696;10.808;2023-01-26T10:35:21;98751.47;;;-0.46;86.69
64078;BME280;51039;49.696;10.808;2023-01-26T10:37:49;98747.72;;;-0.64;86.50
64078;BME280;51039;49.696;10.808;2023-01-26T10:40:17;98735.97;;;-0.47;86.86
64078;BME280;51039;49.696;10.808;2023-01-26T10:42:43;98736.13;;;-0.28;86.73
64078;BME280;51039;49.696;10.808;2023-01-26T10:45:23;98739.31;;;-0.24;86.06
64078;BME280;51039;49.696;10.808;2023-01-26T10:48:00;98732.31;;;-0.24;86.42
64078;BME280;51039;49.696;10.808;2023-01-26T10:50:48;98734.13;;;-0.35;85.56
64078;BME280;51039;49.696;10.808;2023-01-26T10:53:21;98723.38;;;-0.31;85.46
64078;BME280;51039;49.696;10.808;2023-01-26T10:56:02;98730.53;;;-0.44;86.13
64078;BME280;51039;49.696;10.808;2023-01-26T10:58:57;98726.59;;;-0.38;86.32
64078;BME280;51039;49.696;10.808;2023-01-26T11:01:26;98724.47;;;-0.45;85.64
64078;BME280;51039;49.696;10.808;2023-01-26T11:04:03;98739.19;;;-0.55;86.38
64078;BME280;51039;49.696;10.808;2023-01-26T11:06:31;98729.72;;;-0.56;86.69
64078;BME280;51039;49.696;10.808;2023-01-26T11:11:38;98715.50;;;0.02;84.96
64078;BME280;51039;49.696;10.808;2023-01-26T11:14:17;98717.94;;;0.14;83.84
64078;BME280;51039;49.696;10.808;2023-01-26T11:16:49;98711.22;;;0.12;83.51
64078;BME280;51039;49.696;10.808;2023-01-26T11:19:24;98702.44;;;0.13;83.31
64078;BME280;51039;49.696;10.808;2023-01-26T11:22:08;98694.44;;;-0.16;83.45
64078;BME280;51039;49.696;10.808;2023-01-26T11:27:45;98706.94;;;0.11;84.08
64078;BME280;51039;49.696;10.808;2023-01-26T11:30:40;98691.53;;;0.29;83.06
64078;BME280;51039;49.696;10.808;2023-01-26T11:33:29;98685.91;;;0.03;82.56
64078;BME280;51039;49.696;10.808;2023-01-26T11:36:11;98688.81;;;0.09;83.27
64078;BME280;51039;49.696;10.808;2023-01-26T11:38:46;98681.34;;;0.16;82.51
64078;BME280;51039;49.696;10.808;2023-01-26T11:41:28;98680.50;;;0.15;83.20
64078;BME280;51039;49.696;10.808;2023-01-26T11:49:42;98675.28;;;0.15;83.20
64078;BME280;51039;49.696;10.808;2023-01-26T11:52:40;98672.25;;;0.31;82.73
64078;BME280;51039;49.696;10.808;2023-01-26T11:58:04;98659.41;;;0.18;84.08
64078;BME280;51039;49.696;10.808;2023-01-26T12:00:58;98656.59;;;0.31;83.71
64078;BME280;51039;49.696;10.808;2023-01-26T12:06:04;98652.28;;;0.51;83.13
64078;BME280;51039;49.696;10.808;2023-01-26T12:08:38;98647.78;;;0.63;82.50
64078;BME280;51039;49.696;10.808;2023-01-26T12:11:09;98650.91;;;0.47;81.45
64078;BME280;51039;49.696;10.808;2023-01-26T12:13:58;98646.22;;;0.41;82.51
64078;BME280;51039;49.696;10.808;2023-01-26T12:16:31;98641.50;;;0.25;83.53
64078;BME280;51039;49.696;10.808;2023-01-26T12:19:05;98639.03;;;0.03;83.45
64078;BME280;51039;49.696;10.808;2023-01-26T12:21:37;98639.88;;;0.03;84.20
64078;BME280;51039;49.696;10.808;2023-01-26T12:24:07;98634.66;;;-0.18;84.87
64078;BME280;51039;49.696;10.808;2023-01-26T12:26:41;98627.38;;;-0.45;85.38
64078;BME280;51039;49.696;10.808;2023-01-26T12:29:24;98635.69;;;-0.51;86.24
64078;BME280;51039;49.696;10.808;2023-01-26T12:32:02;98628.25;;;-0.35;86.09
64078;BME280;51039;49.696;10.808;2023-01-26T12:34:32;98635.38;;;-0.16;85.53
64078;BME280;51039;49.696;10.808;2023-01-26T12:42:45;98621.81;;;0.11;84.32
64078;BME280;51039;49.696;10.808;2023-01-26T12:45:29;98626.72;;;-0.16;84.38
64078;BME280;51039;49.696;10.808;2023-01-26T12:48:05;98626.59;;;0.06;84.98
64078;BME280;51039;49.696;10.808;2023-01-26T12:50:38;98623.28;;;0.04;85.13
64078;BME280;51039;49.696;10.808;2023-01-26T12:53:24;98613.25;;;-0.01;85.48
64078;BME280;51039;49.696;10.808;2023-01-26T12:58:35;98605.34;;;-0.20;86.65
64078;BME280;51039;49.696;10.808;2023-01-26T13:01:07;98603.94;;;-0.24;87.06
64078;BME280;51039;49.696;10.808;2023-01-26T13:11:03;98599.59;;;-0.14;86.26
64078;BME280;51039;49.696;10.808;2023-01-26T13:18:55;98596.34;;;-0.06;86.06
64078;BME280;51039;49.696;10.808;2023-01-26T13:31:48;98586.81;;;-0.48;88.50
64078;BME280;51039;49.696;10.808;2023-01-26T13:34:14;98584.34;;;-0.49;88.56
64078;BME280;51039;49.696;10.808;2023-01-26T13:36:45;98592.25;;;-0.51;88.78
64078;BME280;51039;49.696;10.808;2023-01-26T13:39:27;98594.88;;;-0.51;88.93
64078;BME280;51039;49.696;10.808;2023-01-26T13:41:55;98592.06;;;-0.59;89.48
64078;BME280;51039;49.696;10.808;2023-01-26T13:44:22;98597.91;;;-0.67;89.99
64078;BME280;51039;49.696;10.808;2023-01-26T13:46:57;98597.28;;;-0.91;90.51
64078;BME280;51039;49.696;10.808;2023-01-26T13:49:35;98599.34;;;-1.06;91.69
64078;BME280;51039;49.696;10.808;2023-01-26T13:52:15;98605.59;;;-0.97;92.28
64078;BME280;51039;49.696;10.808;2023-01-26T13:54:42;98593.19;;;-0.94;92.32
64078;BME280;51039;49.696;10.808;2023-01-26T13:57:11;98594.47;;;-0.88;92.16
64078;BME280;51039;49.696;10.808;2023-01-26T13:59:47;98597.88;;;-0.88;92.20
64078;BME280;51039;49.696;10.808;2023-01-26T14:02:21;98598.41;;;-0.73;91.86
64078;BME280;51039;49.696;10.808;2023-01-26T14:04:52;98596.28;;;-0.79;91.68
64078;BME280;51039;49.696;10.808;2023-01-26T14:07:21;98589.91;;;-0.75;91.99
64078;BME280;51039;49.696;10.808;2023-01-26T14:09:50;98601.59;;;-0.69;91.86
64078;BME280;51039;49.696;10.808;2023-01-26T14:12:19;98602.56;;;-0.82;92.34
64078;BME280;51039;49.696;10.808;2023-01-26T14:14:49;98598.47;;;-0.84;92.55
64078;BME280;51039;49.696;10.808;2023-01-26T14:17:36;98612.75;;;-0.78;92.52